createdAt,value
2018-03-31T00:01:40.863Z,10.10
2018-03-31T00:04:07.940Z,9.63
2018-03-31T00:06:35.536Z,9.63
2018-03-31T00:09:02.820Z,9.50
2018-03-31T00:11:29.859Z,9.67
2018-03-31T00:13:57.119Z,8.70
2018-03-31T00:16:24.576Z,8.83
2018-03-31T00:18:51.619Z,9.10
2018-03-31T00:21:18.644Z,9.07
2018-03-31T00:23:45.836Z,9.23
2018-03-31T00:26:12.841Z,9.20
2018-03-31T00:28:42.146Z,9.27
2018-03-31T00:31:09.650Z,8.37
2018-03-31T00:33:36.671Z,8.77
2018-03-31T00:36:03.919Z,9.00
2018-03-31T00:38:31.576Z,8.07
2018-03-31T00:40:58.847Z,8.30
2018-03-31T00:43:25.882Z,8.30
2018-03-31T00:45:53.134Z,8.17
2018-03-31T00:48:20.280Z,8.63
2018-03-31T00:50:47.444Z,8.50
2018-03-31T00:53:16.110Z,7.10
2018-03-31T00:55:43.364Z,7.57
2018-03-31T00:58:10.375Z,7.40
2018-03-31T01:00:37.581Z,8.80
2018-03-31T01:03:06.131Z,8.10
2018-03-31T01:05:34.093Z,7.47
2018-03-31T01:08:01.112Z,8.10
2018-03-31T01:10:28.124Z,9.43
2018-03-31T01:12:55.127Z,7.70
2018-03-31T01:15:22.303Z,7.73
2018-03-31T01:17:49.400Z,7.37
2018-03-31T01:20:16.412Z,8.83
2018-03-31T01:22:43.444Z,7.33
2018-03-31T01:25:10.452Z,7.63
2018-03-31T01:27:38.837Z,8.33
2018-03-31T01:30:06.630Z,8.23
2018-03-31T01:32:33.675Z,7.63
2018-03-31T01:35:02.031Z,7.83
2018-03-31T01:37:29.219Z,8.67
2018-03-31T01:39:57.177Z,8.00
2018-03-31T01:42:24.323Z,7.23
2018-03-31T01:44:51.776Z,7.73
2018-03-31T01:47:18.789Z,8.03
2018-03-31T01:49:45.797Z,8.83
2018-03-31T01:52:12.804Z,8.40
2018-03-31T01:54:39.826Z,7.90
2018-03-31T01:57:06.832Z,7.77
2018-03-31T01:59:33.855Z,7.90
2018-03-31T02:02:01.023Z,8.10
2018-03-31T02:04:28.829Z,7.57
2018-03-31T02:06:55.824Z,7.67
2018-03-31T02:09:23.337Z,8.40
2018-03-31T02:11:50.420Z,8.20
2018-03-31T02:14:17.571Z,7.77
2018-03-31T02:16:44.720Z,7.13
2018-03-31T02:19:12.180Z,8.07
2018-03-31T02:21:39.214Z,9.27
2018-03-31T02:24:06.486Z,7.80
2018-03-31T02:26:33.619Z,7.47
2018-03-31T02:29:00.631Z,7.03
2018-03-31T02:31:27.641Z,8.50
2018-03-31T02:33:54.640Z,7.50
2018-03-31T02:36:21.725Z,7.47
2018-03-31T02:38:48.732Z,7.13
2018-03-31T02:41:15.746Z,8.23
2018-03-31T02:43:43.516Z,7.67
2018-03-31T02:46:11.441Z,8.30
2018-03-31T02:48:38.456Z,7.80
2018-03-31T02:51:05.728Z,7.43
2018-03-31T02:53:33.867Z,7.40
2018-03-31T02:56:00.877Z,7.70
2018-03-31T02:58:27.881Z,7.97
2018-03-31T03:00:54.896Z,7.47
2018-03-31T03:03:21.899Z,8.40
2018-03-31T03:05:49.049Z,7.93
2018-03-31T03:08:16.183Z,8.23
2018-03-31T03:10:43.196Z,7.40
2018-03-31T03:13:10.380Z,7.37
2018-03-31T03:15:38.755Z,8.00
2018-03-31T03:18:05.772Z,8.83
2018-03-31T03:20:33.059Z,7.77
2018-03-31T03:23:00.388Z,8.53
2018-03-31T03:25:27.466Z,8.07
2018-03-31T03:27:54.503Z,8.60
2018-03-31T03:30:21.964Z,7.67
2018-03-31T03:32:50.005Z,8.30
2018-03-31T03:35:17.041Z,9.30
2018-03-31T03:37:44.815Z,8.70
2018-03-31T03:40:11.831Z,8.97
2018-03-31T03:42:39.139Z,8.33
2018-03-31T03:45:06.711Z,8.03
2018-03-31T03:47:33.731Z,7.37
2018-03-31T03:50:00.735Z,8.03
2018-03-31T03:52:27.845Z,8.03
2018-03-31T03:54:54.987Z,8.97
2018-03-31T03:57:22.006Z,8.90
2018-03-31T03:59:49.075Z,7.73
2018-03-31T04:02:16.228Z,7.50
2018-03-31T04:04:43.236Z,9.30
2018-03-31T04:07:10.243Z,8.47
2018-03-31T04:09:37.247Z,7.83
2018-03-31T04:12:04.652Z,7.80
2018-03-31T04:14:32.838Z,8.30
2018-03-31T04:17:00.055Z,9.07
2018-03-31T04:19:27.067Z,8.43
2018-03-31T04:21:54.463Z,8.30
2018-03-31T04:24:22.243Z,8.57
2018-03-31T04:26:50.000Z,8.77
2018-03-31T04:29:17.021Z,8.33
2018-03-31T04:31:44.015Z,8.70
2018-03-31T04:34:11.047Z,7.87
2018-03-31T04:36:38.683Z,8.77
2018-03-31T04:39:05.931Z,8.83
2018-03-31T04:41:32.966Z,7.60
2018-03-31T04:44:00.615Z,10.27
2018-03-31T04:46:27.624Z,9.83
2018-03-31T04:48:54.751Z,8.50
2018-03-31T04:51:21.762Z,9.20
2018-03-31T04:53:48.804Z,8.77
2018-03-31T04:56:16.499Z,8.73
2018-03-31T04:58:43.743Z,9.70
2018-03-31T05:01:11.792Z,9.50
2018-03-31T05:03:38.796Z,10.13
2018-03-31T05:06:06.235Z,9.97
2018-03-31T05:08:33.259Z,9.93
2018-03-31T05:11:00.275Z,8.00
2018-03-31T05:13:27.283Z,8.80
2018-03-31T05:15:55.668Z,8.57
2018-03-31T05:18:23.607Z,10.07
2018-03-31T05:20:52.279Z,9.10
2018-03-31T05:23:19.298Z,8.93
2018-03-31T05:25:46.307Z,9.00
2018-03-31T05:28:13.720Z,10.10
2018-03-31T05:30:40.979Z,9.50
2018-03-31T05:33:07.979Z,9.23
2018-03-31T05:35:34.995Z,9.63
2018-03-31T05:38:02.009Z,8.60
2018-03-31T05:40:29.175Z,9.20
2018-03-31T05:42:56.951Z,8.97
2018-03-31T05:45:23.959Z,9.07
2018-03-31T05:47:51.019Z,9.90
2018-03-31T05:50:18.099Z,9.80
2018-03-31T05:52:45.100Z,9.53
2018-03-31T05:55:12.104Z,9.43
2018-03-31T05:57:41.694Z,8.70
2018-03-31T06:00:09.251Z,8.70
2018-03-31T06:02:36.393Z,10.97
2018-03-31T06:05:03.431Z,9.40
2018-03-31T06:07:30.511Z,8.83
2018-03-31T06:09:57.526Z,9.57
2018-03-31T06:12:24.537Z,10.50
2018-03-31T06:14:52.456Z,10.37
2018-03-31T06:17:19.472Z,9.53
2018-03-31T06:19:46.497Z,8.30
2018-03-31T06:22:13.514Z,9.37
2018-03-31T06:24:40.546Z,11.40
2018-03-31T06:27:07.767Z,9.80
2018-03-31T06:29:34.795Z,9.80
2018-03-31T06:32:01.847Z,9.57
2018-03-31T06:34:28.892Z,9.17
2018-03-31T06:36:55.906Z,9.40
2018-03-31T06:39:23.821Z,9.57
2018-03-31T06:41:50.848Z,9.60
2018-03-31T06:44:17.847Z,9.33
2018-03-31T06:46:44.917Z,9.90
2018-03-31T06:49:13.027Z,9.63
2018-03-31T06:51:40.047Z,8.87
2018-03-31T06:54:07.048Z,9.10
2018-03-31T06:56:34.271Z,10.17
2018-03-31T06:59:02.261Z,10.10
2018-03-31T07:01:29.278Z,10.03
2018-03-31T07:03:57.128Z,9.20
2018-03-31T07:06:24.151Z,10.67
2018-03-31T07:08:51.451Z,9.70
2018-03-31T07:11:18.531Z,10.20
2018-03-31T07:13:45.755Z,8.77
2018-03-31T07:16:12.785Z,11.50
2018-03-31T07:18:39.872Z,9.40
2018-03-31T07:21:07.204Z,9.47
2018-03-31T07:23:35.349Z,8.87
2018-03-31T07:26:02.415Z,10.60
2018-03-31T07:28:29.596Z,10.63
2018-03-31T07:30:56.629Z,9.20
2018-03-31T07:33:23.691Z,9.00
2018-03-31T07:35:51.707Z,9.60
2018-03-31T07:38:18.719Z,8.53
2018-03-31T07:40:45.798Z,10.60
2018-03-31T07:43:12.770Z,10.33
2018-03-31T07:45:39.811Z,9.10
2018-03-31T07:48:06.840Z,10.80
2018-03-31T07:50:33.852Z,11.00
2018-03-31T07:53:00.880Z,10.57
2018-03-31T07:55:28.000Z,10.50
2018-03-31T07:57:55.049Z,9.93
2018-03-31T08:00:22.055Z,9.80
2018-03-31T08:02:49.091Z,10.20
2018-03-31T08:05:16.190Z,10.13
2018-03-31T08:07:43.212Z,10.03
2018-03-31T08:10:10.227Z,9.10
2018-03-31T08:12:37.246Z,10.33
2018-03-31T08:15:04.258Z,9.10
2018-03-31T08:17:31.886Z,9.70
2018-03-31T08:19:58.907Z,12.03
2018-03-31T08:22:26.874Z,9.70
2018-03-31T08:24:55.535Z,10.67
2018-03-31T08:27:22.787Z,10.40
2018-03-31T08:29:49.828Z,9.83
2018-03-31T08:32:16.876Z,10.20
2018-03-31T08:34:44.780Z,9.67
2018-03-31T08:37:12.581Z,10.87
2018-03-31T08:39:39.597Z,10.20
2018-03-31T08:42:08.283Z,10.03
2018-03-31T08:44:36.220Z,9.50
2018-03-31T08:47:03.766Z,10.70
2018-03-31T08:49:31.735Z,10.60
2018-03-31T08:51:58.779Z,10.60
2018-03-31T08:54:25.942Z,11.97
2018-03-31T08:56:53.083Z,11.50
2018-03-31T08:59:20.228Z,9.73
2018-03-31T09:01:47.236Z,10.90
2018-03-31T09:04:14.484Z,8.97
2018-03-31T09:06:42.599Z,10.43
2018-03-31T09:09:09.703Z,10.80
2018-03-31T09:11:37.554Z,10.03
2018-03-31T09:14:04.552Z,11.53
2018-03-31T09:16:31.832Z,12.90
2018-03-31T09:18:58.872Z,11.97
2018-03-31T09:21:25.884Z,11.23
2018-03-31T09:23:52.949Z,11.73
2018-03-31T09:26:19.953Z,11.47
2018-03-31T09:28:47.166Z,13.50
2018-03-31T09:31:14.399Z,13.87
2018-03-31T09:33:41.476Z,13.87
2018-03-31T09:36:08.696Z,15.33
2018-03-31T09:38:36.643Z,12.90
2018-03-31T09:41:04.346Z,12.10
2018-03-31T09:43:31.441Z,11.73
2018-03-31T09:45:58.452Z,11.30
2018-03-31T09:48:25.460Z,11.70
2018-03-31T09:50:52.477Z,10.67
2018-03-31T09:53:19.487Z,10.57
2018-03-31T09:55:46.688Z,10.73
2018-03-31T09:58:13.980Z,9.90
2018-03-31T10:00:43.514Z,12.03
2018-03-31T10:03:10.714Z,10.33
2018-03-31T10:05:37.747Z,12.70
2018-03-31T10:08:05.326Z,13.60
2018-03-31T10:10:32.345Z,12.70
2018-03-31T10:12:59.352Z,11.30
2018-03-31T10:15:26.559Z,12.70
2018-03-31T10:17:55.131Z,11.67
2018-03-31T10:20:22.139Z,13.43
2018-03-31T10:22:49.452Z,13.70
2018-03-31T10:25:16.486Z,14.60
2018-03-31T10:27:43.742Z,14.90
2018-03-31T10:30:10.887Z,13.87
2018-03-31T10:32:38.051Z,13.87
2018-03-31T10:35:05.072Z,13.50
2018-03-31T10:37:32.152Z,14.83
2018-03-31T10:39:59.172Z,16.40
2018-03-31T10:42:26.184Z,16.90
2018-03-31T10:44:53.199Z,17.17
2018-03-31T10:47:20.221Z,16.33
2018-03-31T10:49:47.776Z,16.77
2018-03-31T10:52:15.852Z,16.00
2018-03-31T10:54:43.010Z,16.20
2018-03-31T10:57:10.751Z,15.43
2018-03-31T10:59:37.909Z,15.47
2018-03-31T11:02:05.704Z,16.17
2018-03-31T11:04:32.924Z,15.50
2018-03-31T11:06:59.973Z,13.87
2018-03-31T11:09:27.240Z,14.23
2018-03-31T11:11:54.281Z,15.13
2018-03-31T11:14:21.858Z,15.17
2018-03-31T11:16:48.885Z,15.20
2018-03-31T11:19:15.897Z,15.70
2018-03-31T11:21:42.915Z,15.87
2018-03-31T11:24:09.936Z,16.57
2018-03-31T11:26:36.966Z,16.07
2018-03-31T11:29:04.119Z,16.63
2018-03-31T11:31:31.145Z,16.13
2018-03-31T11:33:58.151Z,14.70
2018-03-31T11:36:26.097Z,14.10
2018-03-31T11:38:53.223Z,13.73
2018-03-31T11:41:20.252Z,15.33
2018-03-31T11:43:47.828Z,15.90
2018-03-31T11:46:14.843Z,16.07
2018-03-31T11:48:41.852Z,14.97
2018-03-31T11:51:08.967Z,15.50
2018-03-31T11:53:36.052Z,15.63
2018-03-31T11:56:03.082Z,15.50
2018-03-31T11:58:30.095Z,15.43
2018-03-31T12:00:57.130Z,15.87
2018-03-31T12:03:24.405Z,15.07
2018-03-31T12:05:52.100Z,15.20
2018-03-31T12:08:20.036Z,16.30
2018-03-31T12:10:47.087Z,16.10
2018-03-31T12:13:14.995Z,16.00
2018-03-31T12:15:42.788Z,15.97
2018-03-31T12:18:10.695Z,16.87
2018-03-31T12:20:38.209Z,16.87
2018-03-31T12:23:05.284Z,16.83
2018-03-31T12:25:33.195Z,16.90
2018-03-31T12:28:01.428Z,17.20
2018-03-31T12:30:28.449Z,16.70
2018-03-31T12:32:55.482Z,16.33
2018-03-31T12:35:22.488Z,16.87
2018-03-31T12:37:49.534Z,15.57
2018-03-31T12:40:16.560Z,15.13
2018-03-31T12:42:43.582Z,15.20
2018-03-31T12:45:10.595Z,15.50
2018-03-31T12:47:38.243Z,15.23
2018-03-31T12:50:05.294Z,17.27
2018-03-31T12:52:33.415Z,14.90
2018-03-31T12:55:00.424Z,16.17
2018-03-31T12:57:27.449Z,16.43
2018-03-31T12:59:54.476Z,16.30
2018-03-31T13:02:21.492Z,17.13
2018-03-31T13:04:48.511Z,16.83
2018-03-31T13:07:15.524Z,17.20
2018-03-31T13:09:42.964Z,15.67
2018-03-31T13:12:10.112Z,15.60
2018-03-31T13:14:37.408Z,17.67
2018-03-31T13:17:05.462Z,15.97
2018-03-31T13:19:32.496Z,17.47
2018-03-31T13:22:01.015Z,16.03
2018-03-31T13:24:28.931Z,16.63
2018-03-31T13:26:55.956Z,16.43
2018-03-31T13:29:23.183Z,16.23
2018-03-31T13:31:50.175Z,16.60
2018-03-31T13:34:17.198Z,17.10
2018-03-31T13:36:44.203Z,17.60
2018-03-31T13:39:12.444Z,17.60
2018-03-31T13:41:39.852Z,18.50
2018-03-31T13:44:06.868Z,13.70
2018-03-31T13:46:34.386Z,19.40
2018-03-31T13:49:02.795Z,14.30
2018-03-31T13:51:30.032Z,15.83
2018-03-31T13:53:58.541Z,14.83
2018-03-31T13:56:26.983Z,15.90
2018-03-31T13:58:54.230Z,14.23
2018-03-31T14:01:21.403Z,13.93
2018-03-31T14:03:48.430Z,12.80
2018-03-31T14:06:15.697Z,14.70
2018-03-31T14:08:43.700Z,15.67
2018-03-31T14:11:11.323Z,14.43
2018-03-31T14:13:39.388Z,14.40
2018-03-31T14:16:06.417Z,12.73
2018-03-31T14:18:33.591Z,14.50
2018-03-31T14:21:00.739Z,13.50
2018-03-31T14:23:27.764Z,12.93
2018-03-31T14:25:55.039Z,13.10
2018-03-31T14:28:22.188Z,13.47
2018-03-31T14:30:49.201Z,12.80
2018-03-31T14:33:16.203Z,13.43
2018-03-31T14:35:43.979Z,13.83
2018-03-31T14:38:11.011Z,14.60
2018-03-31T14:40:38.053Z,12.63
2018-03-31T14:43:06.181Z,13.67
2018-03-31T14:45:33.187Z,14.03
2018-03-31T14:48:00.247Z,14.83
2018-03-31T14:50:27.455Z,13.67
2018-03-31T14:52:54.568Z,14.90
2018-03-31T14:55:21.747Z,13.17
2018-03-31T14:57:48.771Z,13.70
2018-03-31T15:00:15.779Z,13.83
2018-03-31T15:02:42.816Z,12.57
2018-03-31T15:05:10.591Z,13.20
2018-03-31T15:07:37.805Z,14.63
2018-03-31T15:10:05.286Z,13.00
2018-03-31T15:12:33.069Z,13.33
2018-03-31T15:15:00.093Z,12.83
2018-03-31T15:17:27.872Z,12.30
2018-03-31T15:19:54.884Z,14.33
2018-03-31T15:22:21.931Z,12.00
2018-03-31T15:24:48.984Z,12.17
2018-03-31T15:27:16.763Z,10.23
2018-03-31T15:29:43.779Z,12.47
2018-03-31T15:32:10.805Z,12.90
2018-03-31T15:34:37.991Z,12.37
2018-03-31T15:37:05.260Z,12.73
2018-03-31T15:39:32.276Z,12.30
2018-03-31T15:41:59.314Z,15.00
2018-03-31T15:44:28.107Z,12.90
2018-03-31T15:46:55.141Z,12.77
2018-03-31T15:49:22.430Z,14.87
2018-03-31T15:51:50.947Z,14.27
2018-03-31T15:54:17.956Z,14.73
2018-03-31T15:56:44.980Z,14.37
2018-03-31T15:59:12.239Z,13.73
2018-03-31T16:01:40.243Z,14.97
2018-03-31T16:04:07.688Z,14.27
2018-03-31T16:06:34.706Z,15.53
2018-03-31T16:09:01.747Z,15.90
2018-03-31T16:11:28.918Z,16.37
2018-03-31T16:13:57.108Z,15.80
2018-03-31T16:16:24.219Z,16.20
2018-03-31T16:18:51.227Z,13.73
2018-03-31T16:21:18.442Z,13.33
2018-03-31T16:23:46.963Z,12.43
2018-03-31T16:26:13.963Z,12.13
2018-03-31T16:28:42.610Z,13.07
2018-03-31T16:31:09.611Z,17.73
2018-03-31T16:33:39.161Z,20.70
2018-03-31T16:36:06.313Z,17.13
2018-03-31T16:38:34.114Z,14.40
2018-03-31T16:41:01.118Z,14.70
2018-03-31T16:43:28.136Z,11.80
2018-03-31T16:45:56.240Z,13.43
2018-03-31T16:48:23.520Z,11.67
2018-03-31T16:50:50.535Z,10.87
2018-03-31T16:53:17.564Z,11.10
2018-03-31T16:55:44.579Z,12.23
2018-03-31T16:58:11.651Z,11.60
2018-03-31T17:00:38.782Z,12.73
2018-03-31T17:03:06.935Z,12.40
2018-03-31T17:05:33.982Z,11.50
2018-03-31T17:08:02.252Z,12.97
2018-03-31T17:10:29.679Z,12.60
2018-03-31T17:12:56.855Z,11.60
2018-03-31T17:15:23.995Z,11.67
2018-03-31T17:17:51.020Z,11.60
2018-03-31T17:20:18.326Z,12.53
2018-03-31T17:22:45.339Z,12.13
2018-03-31T17:25:12.590Z,13.10
2018-03-31T17:27:40.078Z,13.77
2018-03-31T17:30:07.201Z,13.27
2018-03-31T17:32:34.607Z,14.73
2018-03-31T17:35:01.630Z,22.87
2018-03-31T17:37:28.631Z,15.13
2018-03-31T17:39:55.698Z,15.37
2018-03-31T17:42:22.715Z,14.30
2018-03-31T17:44:49.732Z,15.10
2018-03-31T17:47:16.936Z,14.40
2018-03-31T17:49:43.996Z,16.80
2018-03-31T17:52:11.008Z,15.00
2018-03-31T17:54:38.830Z,16.73
2018-03-31T17:57:06.248Z,18.10
2018-03-31T17:59:35.410Z,15.27
2018-03-31T18:02:02.427Z,15.13
2018-03-31T18:04:29.463Z,15.53
2018-03-31T18:06:57.315Z,16.10
2018-03-31T18:09:24.349Z,15.83
2018-03-31T18:11:52.026Z,17.80
2018-03-31T18:14:19.036Z,19.47
2018-03-31T18:16:46.052Z,21.33
2018-03-31T18:19:13.575Z,21.30
2018-03-31T18:21:40.748Z,23.20
2018-03-31T18:24:08.144Z,22.47
2018-03-31T18:26:35.147Z,22.50
2018-03-31T18:29:02.932Z,23.50
2018-03-31T18:31:31.856Z,24.87
2018-03-31T18:33:58.868Z,23.87
2018-03-31T18:36:25.891Z,23.40
2018-03-31T18:38:53.009Z,22.47
2018-03-31T18:41:20.067Z,19.10
2018-03-31T18:43:47.340Z,21.83
2018-03-31T18:46:15.120Z,18.00
2018-03-31T18:48:43.141Z,16.80
2018-03-31T18:51:10.165Z,19.17
2018-03-31T18:53:37.364Z,16.13
2018-03-31T18:56:04.499Z,16.33
2018-03-31T18:58:31.522Z,15.93
2018-03-31T19:00:58.965Z,17.77
2018-03-31T19:03:26.036Z,17.23
2018-03-31T19:05:55.235Z,16.30
2018-03-31T19:08:22.487Z,16.93
2018-03-31T19:10:49.903Z,17.53
2018-03-31T19:13:17.015Z,21.50
2018-03-31T19:15:44.033Z,13.83
2018-03-31T19:18:11.084Z,13.50
2018-03-31T19:20:38.489Z,14.17
2018-03-31T19:23:05.512Z,13.30
2018-03-31T19:25:35.504Z,10.70
2018-03-31T19:28:02.527Z,12.77
2018-03-31T19:30:35.923Z,10.97
2018-03-31T19:33:03.122Z,12.57
2018-03-31T19:35:36.039Z,11.37
2018-03-31T19:38:03.228Z,13.40
2018-03-31T19:40:30.244Z,10.93
2018-03-31T19:42:58.120Z,12.50
2018-03-31T19:45:25.118Z,11.37
2018-03-31T19:47:52.156Z,11.90
2018-03-31T19:50:20.100Z,11.70
2018-03-31T19:52:47.356Z,12.83
2018-03-31T19:55:14.504Z,12.63
2018-03-31T19:57:41.669Z,13.00
2018-03-31T20:00:10.183Z,13.53
2018-03-31T20:02:38.218Z,13.20
2018-03-31T20:05:05.295Z,12.83
2018-03-31T20:07:32.323Z,13.03
2018-03-31T20:09:59.356Z,12.40
2018-03-31T20:12:26.396Z,12.80
2018-03-31T20:14:53.539Z,12.47
2018-03-31T20:17:20.561Z,11.83
2018-03-31T20:19:47.582Z,13.20
2018-03-31T20:22:15.396Z,13.20
2018-03-31T20:24:43.800Z,12.50
2018-03-31T20:27:10.819Z,11.63
2018-03-31T20:29:38.048Z,12.80
2018-03-31T20:32:05.076Z,12.13
2018-03-31T20:34:32.096Z,11.90
2018-03-31T20:37:00.061Z,11.37
2018-03-31T20:39:27.489Z,13.20
2018-03-31T20:41:54.944Z,11.27
2018-03-31T20:44:22.928Z,13.53
2018-03-31T20:46:50.172Z,13.10
2018-03-31T20:49:17.315Z,13.27
2018-03-31T20:51:44.471Z,14.50
2018-03-31T20:54:11.487Z,14.07
2018-03-31T20:56:38.504Z,14.13
2018-03-31T20:59:05.530Z,14.17
2018-03-31T21:01:32.527Z,13.93
2018-03-31T21:03:59.543Z,15.33
2018-03-31T21:06:26.957Z,15.30
2018-03-31T21:08:54.208Z,16.37
2018-03-31T21:11:22.810Z,16.23
2018-03-31T21:13:49.854Z,14.00
2018-03-31T21:16:18.285Z,15.10
2018-03-31T21:18:45.296Z,14.73
2018-03-31T21:21:13.328Z,14.67
2018-03-31T21:23:40.484Z,14.30
2018-03-31T21:26:07.631Z,16.33
2018-03-31T21:28:35.351Z,15.63
2018-03-31T21:31:04.169Z,15.17
2018-03-31T21:33:31.238Z,14.83
2018-03-31T21:35:58.483Z,15.07
2018-03-31T21:38:25.643Z,15.90
2018-03-31T21:40:52.663Z,14.70
2018-03-31T21:43:20.552Z,14.77
2018-03-31T21:45:47.610Z,15.83
2018-03-31T21:48:15.047Z,15.13
2018-03-31T21:50:42.055Z,15.20
2018-03-31T21:53:09.363Z,14.23
2018-03-31T21:55:36.504Z,14.00
2018-03-31T21:58:03.646Z,14.50
2018-03-31T22:00:31.168Z,17.03
2018-03-31T22:02:58.729Z,14.83
2018-03-31T22:05:25.759Z,16.83
2018-03-31T22:07:52.990Z,15.00
2018-03-31T22:10:20.923Z,16.03
2018-03-31T22:12:47.928Z,15.80
2018-03-31T22:15:20.495Z,16.00
2018-03-31T22:17:47.508Z,15.03
2018-03-31T22:20:15.838Z,16.10
2018-03-31T22:22:42.850Z,14.47
2018-03-31T22:25:11.483Z,14.40
2018-03-31T22:27:38.496Z,13.50
2018-03-31T22:30:05.779Z,13.77
2018-03-31T22:32:32.831Z,12.93
2018-03-31T22:34:59.844Z,12.93
2018-03-31T22:37:26.851Z,13.10
2018-03-31T22:39:53.885Z,12.30
2018-03-31T22:42:20.936Z,12.47
2018-03-31T22:44:48.335Z,11.27
2018-03-31T22:47:15.532Z,12.20
2018-03-31T22:49:42.545Z,11.10
2018-03-31T22:52:10.045Z,10.83
2018-03-31T22:54:37.088Z,13.27
2018-03-31T22:57:04.112Z,10.80
2018-03-31T22:59:31.281Z,11.23
2018-03-31T23:01:59.219Z,12.10
2018-03-31T23:04:26.491Z,12.03
2018-03-31T23:06:54.131Z,10.63
2018-03-31T23:09:21.404Z,11.80
2018-03-31T23:11:48.440Z,10.93
2018-03-31T23:14:15.479Z,10.50
2018-03-31T23:16:42.491Z,10.57
2018-03-31T23:19:09.503Z,11.83
2018-03-31T23:21:36.519Z,13.63
2018-03-31T23:24:03.800Z,14.07
2018-03-31T23:26:31.758Z,17.13
2018-03-31T23:28:59.212Z,16.80
2018-03-31T23:31:26.232Z,20.33
2018-03-31T23:33:59.665Z,20.90
2018-03-31T23:36:27.575Z,20.17
2018-03-31T23:38:55.339Z,19.80
2018-03-31T23:41:23.254Z,19.90
2018-03-31T23:43:50.416Z,18.60
2018-03-31T23:46:18.657Z,20.80
2018-03-31T23:48:45.838Z,20.80
2018-03-31T23:51:12.855Z,21.37
2018-03-31T23:53:39.868Z,21.60
2018-03-31T23:56:07.286Z,19.07
2018-03-31T23:58:34.298Z,18.63
